createdAt,value
2022-10-01T00:02:51.417Z,70.19
2022-10-01T00:07:46.295Z,69.99
2022-10-01T00:12:44.648Z,69.84
2022-10-01T00:17:39.549Z,69.63
2022-10-01T00:22:33.304Z,69.90
2022-10-01T00:27:26.876Z,70.47
2022-10-01T00:32:20.080Z,70.21
2022-10-01T00:37:14.634Z,70.27
2022-10-01T00:42:18.492Z,70.25
2022-10-01T00:47:22.273Z,70.18
2022-10-01T00:52:20.316Z,69.94
2022-10-01T00:57:18.147Z,70.42
2022-10-01T01:02:12.001Z,70.46
2022-10-01T01:07:07.206Z,70.87
2022-10-01T01:12:11.849Z,70.66
2022-10-01T01:17:16.637Z,71.28
2022-10-01T01:22:13.573Z,71.71
2022-10-01T01:27:19.674Z,72.01
2022-10-01T01:32:20.678Z,72.25
2022-10-01T01:37:18.939Z,72.72
2022-10-01T01:42:18.450Z,72.94
2022-10-01T01:47:13.435Z,72.73
2022-10-01T01:52:13.639Z,72.33
2022-10-01T01:57:09.211Z,72.11
2022-10-01T02:02:04.334Z,71.51
2022-10-01T02:07:16.316Z,71.33
2022-10-01T02:12:21.644Z,71.01
2022-10-01T02:17:18.348Z,71.21
2022-10-01T02:22:18.051Z,70.95
2022-10-01T02:27:16.836Z,71.14
2022-10-01T02:32:12.312Z,69.56
2022-10-01T02:37:07.794Z,68.62
2022-10-01T02:42:05.133Z,67.26
2022-10-01T02:47:04.115Z,67.68
2022-10-01T02:52:09.172Z,67.19
2022-10-01T02:57:21.044Z,68.54
2022-10-01T03:02:14.662Z,69.77
2022-10-01T03:07:07.875Z,70.82
2022-10-01T03:12:01.239Z,71.38
2022-10-01T03:16:56.199Z,72.44
2022-10-01T03:21:49.536Z,72.07
2022-10-01T03:26:43.039Z,72.68
2022-10-01T03:31:37.270Z,72.67
2022-10-01T03:36:32.305Z,73.53
2022-10-01T03:41:25.692Z,73.82
2022-10-01T03:46:19.383Z,74.80
2022-10-01T03:51:15.592Z,75.41
2022-10-01T03:56:13.752Z,75.36
2022-10-01T04:01:06.982Z,75.76
2022-10-01T04:06:00.218Z,76.41
2022-10-01T04:10:53.461Z,76.90
2022-10-01T04:15:48.822Z,77.51
2022-10-01T04:20:43.109Z,77.63
2022-10-01T04:25:36.646Z,78.10
2022-10-01T04:30:31.957Z,77.79
2022-10-01T04:35:27.409Z,77.69
2022-10-01T04:40:20.690Z,77.85
2022-10-01T04:45:14.181Z,78.72
2022-10-01T04:50:08.065Z,79.10
2022-10-01T04:55:02.644Z,79.19
2022-10-01T04:59:57.150Z,78.59
2022-10-01T05:04:50.352Z,78.22
2022-10-01T05:09:43.722Z,78.51
2022-10-01T05:14:41.191Z,78.06
2022-10-01T05:19:36.016Z,77.96
2022-10-01T05:24:33.759Z,78.05
2022-10-01T05:29:26.981Z,78.28
2022-10-01T05:34:21.611Z,78.49
2022-10-01T05:39:17.051Z,78.11
2022-10-01T05:44:12.584Z,78.24
2022-10-01T05:49:07.804Z,77.50
2022-10-01T05:54:04.475Z,77.12
2022-10-01T05:58:58.560Z,76.66
2022-10-01T06:03:52.907Z,76.68
2022-10-01T06:08:47.004Z,76.09
2022-10-01T06:13:45.326Z,76.28
2022-10-01T06:18:38.814Z,75.60
2022-10-01T06:23:33.784Z,75.73
2022-10-01T06:28:48.710Z,75.20
2022-10-01T06:33:42.055Z,75.15
2022-10-01T06:38:35.678Z,74.55
2022-10-01T06:43:31.395Z,74.25
2022-10-01T06:48:26.476Z,73.70
2022-10-01T06:53:20.163Z,73.56
2022-10-01T06:58:15.670Z,73.59
2022-10-01T07:03:11.258Z,72.85
2022-10-01T07:08:06.732Z,72.51
2022-10-01T07:13:07.736Z,71.03
2022-10-01T07:18:01.353Z,70.15
2022-10-01T07:22:59.414Z,70.11
2022-10-01T07:27:57.845Z,69.59
2022-10-01T07:33:13.824Z,67.37
2022-10-01T07:38:10.299Z,67.34
2022-10-01T07:43:08.493Z,65.25
2022-10-01T07:48:03.609Z,64.89
2022-10-01T07:52:58.319Z,62.63
2022-10-01T07:57:53.544Z,62.77
2022-10-01T08:02:57.362Z,61.33
2022-10-01T08:07:51.574Z,60.61
2022-10-01T08:12:46.421Z,60.87
2022-10-01T08:17:40.266Z,60.47
2022-10-01T08:22:39.760Z,60.58
2022-10-01T08:27:38.745Z,58.91
2022-10-01T08:32:32.320Z,58.61
2022-10-01T08:37:30.048Z,56.09
2022-10-01T08:42:42.121Z,54.30
2022-10-01T08:47:43.971Z,53.19
2022-10-01T08:52:43.030Z,50.40
2022-10-01T08:57:43.069Z,47.81
2022-10-01T09:02:40.810Z,44.71
2022-10-01T09:07:51.008Z,40.54
2022-10-01T09:12:53.905Z,38.98
2022-10-01T09:17:59.674Z,36.96
2022-10-01T09:23:05.556Z,38.50
2022-10-01T09:28:12.797Z,37.43
2022-10-01T09:33:20.882Z,37.60
2022-10-01T09:38:21.464Z,38.87
2022-10-01T09:43:20.229Z,40.00
2022-10-01T09:48:20.822Z,41.32
2022-10-01T09:53:19.985Z,42.10
2022-10-01T09:58:19.434Z,41.67
2022-10-01T10:03:23.905Z,42.81
2022-10-01T10:08:22.330Z,42.92
2022-10-01T10:13:24.658Z,45.84
2022-10-01T10:18:25.335Z,45.67
2022-10-01T10:23:23.419Z,44.58
2022-10-01T10:28:23.899Z,45.17
2022-10-01T10:33:18.491Z,45.25
2022-10-01T10:38:19.163Z,47.13
2022-10-01T10:43:23.079Z,46.59
2022-10-01T10:48:21.254Z,43.93
2022-10-01T10:53:22.557Z,46.56
2022-10-01T10:58:16.618Z,48.30
2022-10-01T11:03:18.493Z,49.05
2022-10-01T11:08:17.919Z,46.68
2022-10-01T11:13:27.986Z,47.08
2022-10-01T11:18:46.458Z,46.83
2022-10-01T11:24:07.849Z,48.10
2022-10-01T11:29:17.721Z,46.42
2022-10-01T11:34:50.462Z,47.12
2022-10-01T11:39:48.522Z,46.98
2022-10-01T11:44:50.317Z,48.72
2022-10-01T11:49:52.068Z,47.03
2022-10-01T11:54:56.791Z,48.62
2022-10-01T11:59:54.656Z,49.17
2022-10-01T12:04:53.790Z,50.55
2022-10-01T12:09:50.429Z,48.46
2022-10-01T12:14:52.720Z,50.00
2022-10-01T12:19:51.690Z,49.02
2022-10-01T12:24:46.135Z,48.18
2022-10-01T12:29:47.706Z,47.14
2022-10-01T12:34:53.303Z,47.15
2022-10-01T12:40:04.124Z,47.29
2022-10-01T12:45:06.889Z,47.27
2022-10-01T12:50:11.551Z,45.15
2022-10-01T12:55:35.463Z,45.04
2022-10-01T13:00:36.207Z,41.04
2022-10-01T13:05:38.826Z,38.36
2022-10-01T13:10:48.871Z,37.41
2022-10-01T13:15:47.761Z,36.67
2022-10-01T13:20:51.736Z,38.44
2022-10-01T13:25:59.342Z,35.89
2022-10-01T13:30:59.285Z,38.18
2022-10-01T13:36:04.455Z,37.14
2022-10-01T13:41:01.470Z,37.97
2022-10-01T13:45:56.540Z,36.32
2022-10-01T13:51:01.074Z,36.26
2022-10-01T13:55:57.004Z,38.45
2022-10-01T14:00:53.617Z,38.77
2022-10-01T14:05:48.578Z,39.94
2022-10-01T14:11:00.588Z,41.08
2022-10-01T14:16:02.851Z,41.62
2022-10-01T14:21:19.197Z,41.87
2022-10-01T14:26:21.410Z,42.31
2022-10-01T14:31:24.014Z,41.68
2022-10-01T14:36:19.916Z,41.46
2022-10-01T14:41:19.911Z,39.50
2022-10-01T14:46:16.865Z,38.96
2022-10-01T14:51:25.648Z,38.97
2022-10-01T14:56:19.164Z,39.63
2022-10-01T15:01:18.954Z,41.25
2022-10-01T15:06:14.893Z,42.40
2022-10-01T15:11:11.608Z,43.13
2022-10-01T15:16:16.018Z,43.24
2022-10-01T15:21:18.892Z,43.52
2022-10-01T15:26:20.905Z,43.48
2022-10-01T15:31:15.721Z,43.16
2022-10-01T15:36:17.613Z,43.24
2022-10-01T15:41:31.667Z,42.83
2022-10-01T15:46:33.212Z,42.88
2022-10-01T15:51:30.124Z,42.92
2022-10-01T15:56:25.375Z,43.25
2022-10-01T16:01:22.606Z,43.02
2022-10-01T16:06:19.980Z,43.16
2022-10-01T16:11:21.560Z,43.82
2022-10-01T16:16:30.631Z,43.90
2022-10-01T16:21:24.591Z,44.44
2022-10-01T16:26:37.812Z,44.37
2022-10-01T16:31:31.805Z,44.46
2022-10-01T16:36:26.533Z,45.11
2022-10-01T16:41:23.606Z,45.39
2022-10-01T16:46:18.328Z,45.90
2022-10-01T16:51:12.463Z,46.00
2022-10-01T16:56:05.647Z,45.47
2022-10-01T17:00:58.909Z,45.69
2022-10-01T17:05:53.719Z,45.56
2022-10-01T17:10:50.874Z,46.33
2022-10-01T17:15:44.480Z,46.58
2022-10-01T17:20:39.352Z,47.25
2022-10-01T17:25:38.495Z,47.31
2022-10-01T17:30:32.857Z,48.10
2022-10-01T17:35:28.367Z,48.44
2022-10-01T17:40:21.766Z,49.72
2022-10-01T17:45:16.369Z,50.16
2022-10-01T17:50:10.055Z,50.50
2022-10-01T17:55:03.335Z,50.38
2022-10-01T17:59:56.515Z,50.55
2022-10-01T18:04:51.109Z,50.13
2022-10-01T18:09:46.102Z,49.93
2022-10-01T18:14:39.801Z,49.90
2022-10-01T18:24:47.655Z,50.01
2022-10-01T18:29:40.877Z,50.32
2022-10-01T18:34:40.182Z,51.26
2022-10-01T18:39:42.144Z,51.91
2022-10-01T18:44:36.706Z,53.01
2022-10-01T18:49:53.354Z,53.32
2022-10-01T18:55:01.218Z,53.77
2022-10-01T19:00:04.343Z,54.67
2022-10-01T19:05:25.034Z,55.68
2022-10-01T19:10:28.042Z,56.80
2022-10-01T19:15:37.384Z,57.02
2022-10-01T19:20:49.971Z,57.67
2022-10-01T19:25:51.330Z,59.21
2022-10-01T19:30:58.121Z,59.90
2022-10-01T19:35:56.530Z,61.10
2022-10-01T19:40:57.226Z,61.79
2022-10-01T19:45:58.129Z,62.40
2022-10-01T19:50:56.984Z,63.28
2022-10-01T19:55:52.805Z,63.70
2022-10-01T20:00:53.697Z,64.03
2022-10-01T20:05:55.448Z,64.15
2022-10-01T20:10:55.999Z,64.19
2022-10-01T20:15:57.589Z,63.99
2022-10-01T20:21:06.561Z,64.08
2022-10-01T20:26:11.749Z,63.95
2022-10-01T20:31:16.232Z,63.62
2022-10-01T20:36:17.111Z,63.61
2022-10-01T20:41:15.719Z,63.56
2022-10-01T20:46:15.160Z,63.60
2022-10-01T20:51:18.975Z,63.32
2022-10-01T20:56:17.447Z,63.33
2022-10-01T21:01:18.633Z,63.22
2022-10-01T21:06:19.325Z,62.93
2022-10-01T21:11:22.759Z,63.07
2022-10-01T21:16:45.388Z,62.81
2022-10-01T21:21:46.158Z,62.68
2022-10-01T21:26:55.487Z,62.32
2022-10-01T21:32:02.848Z,62.65
2022-10-01T21:37:05.297Z,68.75
2022-10-01T21:42:11.312Z,73.61
2022-10-01T21:47:11.519Z,79.28
2022-10-01T21:52:16.156Z,83.26
2022-10-01T21:57:31.100Z,87.90
2022-10-01T22:02:37.925Z,90.63
2022-10-01T22:07:38.122Z,93.42
2022-10-01T22:12:36.305Z,94.55
2022-10-01T22:17:34.807Z,96.64
2022-10-01T22:22:31.765Z,98.43
2022-10-01T22:27:32.230Z,99.37
2022-10-01T22:32:31.787Z,100.00
2022-10-01T22:37:29.980Z,100.00
2022-10-01T22:42:29.776Z,100.00
2022-10-01T22:47:38.428Z,100.00
2022-10-01T22:52:39.298Z,100.00
2022-10-01T22:57:50.643Z,100.00
2022-10-01T23:02:55.978Z,100.00
2022-10-01T23:07:59.368Z,100.00
2022-10-01T23:13:17.171Z,100.00
2022-10-01T23:18:29.411Z,100.00
2022-10-01T23:23:31.168Z,100.00
2022-10-01T23:28:37.136Z,100.00
2022-10-01T23:33:50.750Z,100.00
2022-10-01T23:39:01.877Z,100.00
2022-10-01T23:44:06.622Z,100.00
2022-10-01T23:49:06.496Z,100.00
2022-10-01T23:54:03.899Z,100.00
2022-10-01T23:59:03.152Z,100.00
